createdAt,value
2018-02-05T00:01:28.398Z,49.30
2018-02-05T00:03:57.629Z,39.67
2018-02-05T00:06:26.726Z,48.73
2018-02-05T00:08:56.819Z,44.40
2018-02-05T00:11:25.919Z,41.30
2018-02-05T00:13:55.009Z,38.10
2018-02-05T00:16:24.120Z,39.97
2018-02-05T00:18:53.220Z,41.03
2018-02-05T00:21:22.354Z,39.43
2018-02-05T00:23:52.204Z,39.60
2018-02-05T00:26:21.317Z,40.30
2018-02-05T00:28:51.926Z,40.10
2018-02-05T00:31:21.009Z,48.00
2018-02-05T00:33:50.138Z,43.30
2018-02-05T00:36:19.409Z,39.67
2018-02-05T00:38:48.510Z,43.00
2018-02-05T00:41:17.670Z,42.23
2018-02-05T00:43:46.770Z,47.60
2018-02-05T00:46:15.894Z,41.70
2018-02-05T00:48:45.012Z,40.00
2018-02-05T00:51:14.125Z,42.87
2018-02-05T00:53:43.249Z,40.27
2018-02-05T00:56:13.148Z,38.73
2018-02-05T00:58:43.762Z,42.57
2018-02-05T01:01:12.862Z,36.53
2018-02-05T01:03:41.958Z,52.33
2018-02-05T01:06:11.054Z,42.40
2018-02-05T01:08:41.049Z,43.70
2018-02-05T01:11:10.158Z,39.23
2018-02-05T01:13:39.240Z,41.17
2018-02-05T01:16:08.351Z,43.57
2018-02-05T01:18:37.454Z,52.83
2018-02-05T01:21:06.550Z,41.33
2018-02-05T01:23:35.666Z,37.83
2018-02-05T01:26:05.545Z,36.77
2018-02-05T01:28:34.658Z,39.20
2018-02-05T01:31:03.767Z,30.20
2018-02-05T01:33:32.868Z,31.87
2018-02-05T01:36:02.747Z,35.50
2018-02-05T01:38:32.585Z,33.20
2018-02-05T01:41:02.492Z,41.23
2018-02-05T01:43:31.592Z,36.57
2018-02-05T01:46:00.704Z,35.73
2018-02-05T01:48:30.554Z,43.70
2018-02-05T01:50:59.667Z,38.00
2018-02-05T01:53:28.763Z,45.10
2018-02-05T01:55:57.878Z,38.30
2018-02-05T01:58:26.966Z,43.50
2018-02-05T02:00:56.057Z,43.67
2018-02-05T02:03:25.167Z,40.67
2018-02-05T02:05:54.310Z,36.90
2018-02-05T02:08:24.161Z,44.17
2018-02-05T02:10:53.252Z,39.60
2018-02-05T02:13:22.346Z,42.50
2018-02-05T02:15:51.437Z,47.87
2018-02-05T02:18:20.547Z,41.40
2018-02-05T02:20:49.662Z,45.87
2018-02-05T02:23:18.771Z,45.77
2018-02-05T02:25:48.617Z,43.97
2018-02-05T02:28:17.717Z,42.27
2018-02-05T02:30:46.818Z,45.67
2018-02-05T02:33:15.916Z,50.40
2018-02-05T02:35:45.029Z,50.77
2018-02-05T02:38:14.135Z,44.43
2018-02-05T02:40:43.833Z,52.70
2018-02-05T02:43:12.940Z,41.00
2018-02-05T02:45:42.071Z,44.47
2018-02-05T02:48:11.913Z,40.63
2018-02-05T02:50:41.024Z,47.10
2018-02-05T02:53:10.128Z,43.50
2018-02-05T02:55:39.214Z,42.50
2018-02-05T02:58:09.101Z,43.03
2018-02-05T03:00:38.961Z,39.03
2018-02-05T03:03:08.069Z,48.20
2018-02-05T03:05:37.186Z,41.37
2018-02-05T03:08:06.275Z,45.37
2018-02-05T03:10:35.391Z,39.37
2018-02-05T03:13:05.261Z,38.67
2018-02-05T03:15:34.393Z,49.93
2018-02-05T03:18:04.247Z,40.07
2018-02-05T03:20:33.334Z,40.90
2018-02-05T03:23:03.445Z,40.23
2018-02-05T03:25:32.554Z,49.27
2018-02-05T03:28:01.676Z,44.97
2018-02-05T03:30:30.802Z,42.10
2018-02-05T03:32:59.902Z,35.93
2018-02-05T03:35:29.792Z,43.73
2018-02-05T03:37:58.926Z,34.53
2018-02-05T03:40:28.780Z,40.47
2018-02-05T03:42:57.894Z,38.77
2018-02-05T03:45:27.007Z,39.97
2018-02-05T03:47:56.097Z,33.90
2018-02-05T03:50:28.047Z,34.90
2018-02-05T03:52:57.293Z,39.73
2018-02-05T03:55:27.141Z,34.00
2018-02-05T03:57:56.252Z,37.70
2018-02-05T04:00:25.350Z,38.83
2018-02-05T04:02:54.457Z,40.60
2018-02-05T04:05:23.569Z,37.50
2018-02-05T04:07:53.434Z,31.47
2018-02-05T04:10:22.552Z,34.57
2018-02-05T04:12:51.654Z,39.60
2018-02-05T04:15:22.254Z,38.20
2018-02-05T04:17:51.548Z,36.53
2018-02-05T04:20:21.016Z,41.23
2018-02-05T04:22:50.114Z,38.97
2018-02-05T04:25:19.978Z,36.03
2018-02-05T04:27:49.099Z,40.57
2018-02-05T04:30:18.178Z,38.23
2018-02-05T04:32:47.302Z,39.17
2018-02-05T04:35:16.408Z,42.20
2018-02-05T04:37:45.514Z,38.00
2018-02-05T04:40:15.374Z,43.30
2018-02-05T04:42:44.487Z,41.73
2018-02-05T04:45:14.333Z,38.80
2018-02-05T04:47:44.221Z,35.83
2018-02-05T04:50:13.326Z,42.90
2018-02-05T04:52:42.480Z,39.83
2018-02-05T04:55:11.553Z,41.70
2018-02-05T04:57:40.685Z,43.13
2018-02-05T05:00:10.544Z,41.33
2018-02-05T05:02:40.406Z,39.93
2018-02-05T05:05:09.517Z,44.23
2018-02-05T05:07:38.619Z,40.50
2018-02-05T05:10:07.744Z,43.70
2018-02-05T05:12:36.833Z,42.20
2018-02-05T05:15:06.702Z,44.47
2018-02-05T05:17:35.809Z,41.93
2018-02-05T05:20:04.903Z,45.80
2018-02-05T05:22:34.002Z,42.97
2018-02-05T05:25:03.100Z,47.37
2018-02-05T05:27:32.229Z,43.63
2018-02-05T05:30:02.089Z,44.63
2018-02-05T05:32:31.290Z,39.40
2018-02-05T05:35:00.948Z,39.47
2018-02-05T05:37:30.893Z,46.13
2018-02-05T05:40:00.785Z,45.83
2018-02-05T05:42:29.888Z,42.53
2018-02-05T05:44:59.777Z,40.03
2018-02-05T05:47:30.285Z,38.17
2018-02-05T05:50:00.165Z,45.40
2018-02-05T05:52:29.260Z,36.60
2018-02-05T05:54:58.395Z,39.53
2018-02-05T05:57:29.029Z,44.83
2018-02-05T05:59:58.125Z,44.10
2018-02-05T06:02:27.225Z,42.87
2018-02-05T06:04:56.345Z,37.20
2018-02-05T06:07:26.204Z,37.67
2018-02-05T06:09:56.302Z,37.93
2018-02-05T06:12:25.929Z,43.43
2018-02-05T06:14:55.027Z,38.40
2018-02-05T06:17:24.148Z,37.67
2018-02-05T06:19:53.243Z,42.87
2018-02-05T06:22:22.363Z,39.27
2018-02-05T06:24:51.443Z,40.30
2018-02-05T06:27:20.566Z,43.20
2018-02-05T06:29:49.658Z,43.20
2018-02-05T06:32:19.532Z,36.80
2018-02-05T06:34:49.401Z,40.13
2018-02-05T06:37:19.297Z,43.90
2018-02-05T06:39:48.415Z,41.53
2018-02-05T06:42:18.302Z,45.10
2018-02-05T06:44:47.403Z,41.03
2018-02-05T06:47:16.497Z,41.27
2018-02-05T06:49:45.614Z,44.87
2018-02-05T07:05:47.785Z,44.17
2018-02-05T07:08:17.856Z,41.83
2018-02-05T07:10:46.981Z,51.03
2018-02-05T07:13:17.830Z,43.87
2018-02-05T07:15:51.006Z,44.50
2018-02-05T07:18:20.091Z,45.43
2018-02-05T07:20:49.185Z,43.60
2018-02-05T07:23:18.302Z,42.67
2018-02-05T07:25:48.171Z,46.83
2018-02-05T07:28:18.512Z,37.43
2018-02-05T07:30:47.581Z,44.70
2018-02-05T07:33:19.344Z,52.23
2018-02-05T07:35:48.424Z,51.67
2018-02-05T07:38:17.541Z,41.27
2018-02-05T07:40:46.638Z,43.30
2018-02-05T07:43:15.733Z,44.23
2018-02-05T07:45:44.874Z,42.17
2018-02-05T07:48:14.718Z,41.47
2018-02-05T07:50:44.605Z,37.17
2018-02-05T07:53:14.477Z,39.90
2018-02-05T07:55:43.574Z,39.73
2018-02-05T07:58:12.700Z,38.27
2018-02-05T08:00:42.551Z,39.57
2018-02-05T08:03:11.655Z,38.07
2018-02-05T08:05:40.757Z,35.63
2018-02-05T08:08:09.873Z,43.93
2018-02-05T08:10:39.726Z,40.50
2018-02-05T08:13:09.597Z,42.77
2018-02-05T08:15:38.710Z,40.23
2018-02-05T08:18:07.815Z,40.23
2018-02-05T08:20:36.929Z,36.87
2018-02-05T08:23:06.781Z,42.00
2018-02-05T08:25:35.906Z,35.23
2018-02-05T08:28:05.013Z,41.03
2018-02-05T08:30:34.125Z,40.70
2018-02-05T08:33:03.976Z,35.43
2018-02-05T08:35:33.093Z,38.63
2018-02-05T08:38:02.956Z,45.87
2018-02-05T08:40:32.808Z,45.17
2018-02-05T08:43:01.905Z,44.60
2018-02-05T08:45:31.011Z,37.40
2018-02-05T08:48:00.113Z,37.27
2018-02-05T08:50:29.221Z,37.60
2018-02-05T08:52:58.363Z,45.13
2018-02-05T08:55:27.462Z,44.40
2018-02-05T08:57:56.561Z,38.30
2018-02-05T09:00:25.694Z,40.27
2018-02-05T09:02:54.792Z,42.67
2018-02-05T09:05:23.899Z,40.00
2018-02-05T09:07:53.010Z,38.77
2018-02-05T09:10:22.137Z,40.50
2018-02-05T09:12:51.327Z,35.30
2018-02-05T09:15:20.411Z,39.50
2018-02-05T09:17:50.273Z,39.83
2018-02-05T09:20:19.371Z,36.93
2018-02-05T09:22:48.485Z,43.50
2018-02-05T09:25:17.627Z,37.47
2018-02-05T09:27:46.686Z,44.20
2018-02-05T09:30:15.764Z,39.90
2018-02-05T09:32:44.877Z,37.90
2018-02-05T09:35:14.745Z,36.07
2018-02-05T09:37:44.425Z,35.10
2018-02-05T09:40:13.553Z,36.83
2018-02-05T09:42:42.641Z,38.00
2018-02-05T09:45:11.764Z,39.63
2018-02-05T09:47:40.846Z,39.07
2018-02-05T09:50:09.951Z,37.23
2018-02-05T09:52:39.053Z,40.07
2018-02-05T09:55:08.139Z,36.07
2018-02-05T09:57:37.276Z,37.50
2018-02-05T10:00:06.371Z,35.77
2018-02-05T10:02:35.473Z,40.23
2018-02-05T10:05:05.355Z,34.77
2018-02-05T10:07:34.465Z,37.00
2018-02-05T10:10:04.339Z,39.23
2018-02-05T10:12:33.457Z,41.00
2018-02-05T10:15:03.274Z,39.60
2018-02-05T10:17:32.382Z,35.57
2018-02-05T10:20:01.489Z,42.10
2018-02-05T10:22:30.629Z,34.90
2018-02-05T10:24:59.698Z,33.63
2018-02-05T10:27:29.666Z,35.80
2018-02-05T10:29:58.780Z,35.77
2018-02-05T10:32:27.899Z,37.63
2018-02-05T10:34:57.010Z,36.10
2018-02-05T10:37:26.901Z,33.43
2018-02-05T10:39:56.025Z,29.67
2018-02-05T10:42:25.878Z,31.60
2018-02-05T10:44:54.962Z,36.20
2018-02-05T10:47:24.953Z,30.73
2018-02-05T10:49:54.052Z,35.30
2018-02-05T10:52:23.171Z,30.13
2018-02-05T10:54:53.039Z,38.57
2018-02-05T10:57:22.155Z,35.40
2018-02-05T10:59:51.258Z,32.30
2018-02-05T11:02:20.355Z,34.40
2018-02-05T11:04:49.473Z,34.13
2018-02-05T11:07:18.561Z,37.27
2018-02-05T11:09:47.678Z,42.60
2018-02-05T11:12:17.603Z,34.03
2018-02-05T11:14:46.739Z,36.13
2018-02-05T11:17:16.598Z,30.97
2018-02-05T11:19:45.726Z,36.23
2018-02-05T11:22:15.207Z,36.50
2018-02-05T11:24:44.307Z,33.10
2018-02-05T11:27:14.964Z,28.80
2018-02-05T11:29:45.218Z,36.07
2018-02-05T11:32:15.801Z,33.50
2018-02-05T11:34:44.899Z,36.10
2018-02-05T11:37:14.022Z,30.23
2018-02-05T11:39:43.869Z,34.27
2018-02-05T11:42:12.979Z,32.43
2018-02-05T11:44:42.114Z,29.93
2018-02-05T11:47:12.723Z,32.97
2018-02-05T11:49:42.183Z,32.23
2018-02-05T11:52:11.308Z,29.13
2018-02-05T11:54:41.179Z,29.80
2018-02-05T11:57:11.074Z,34.50
2018-02-05T11:59:40.195Z,29.53
2018-02-05T12:02:09.302Z,30.13
2018-02-05T12:04:38.394Z,33.40
2018-02-05T12:07:07.505Z,30.03
2018-02-05T12:09:36.607Z,31.17
2018-02-05T12:12:05.760Z,29.40
2018-02-05T12:14:35.605Z,32.23
2018-02-05T12:17:04.753Z,29.13
2018-02-05T12:19:33.825Z,30.80
2018-02-05T12:22:04.566Z,29.00
2018-02-05T12:24:33.691Z,29.00
2018-02-05T12:27:03.575Z,31.77
2018-02-05T12:29:32.661Z,34.13
2018-02-05T12:32:01.771Z,29.20
2018-02-05T12:34:30.892Z,31.83
2018-02-05T12:37:01.554Z,32.47
2018-02-05T12:39:30.666Z,30.00
2018-02-05T12:42:00.662Z,33.20
2018-02-05T12:44:30.507Z,27.73
2018-02-05T12:47:00.278Z,32.00
2018-02-05T12:49:30.166Z,27.23
2018-02-05T12:51:59.278Z,30.80
2018-02-05T12:54:28.396Z,25.57
2018-02-05T12:56:58.293Z,26.40
2018-02-05T12:59:27.370Z,29.30
2018-02-05T13:01:57.325Z,28.77
2018-02-05T13:07:34.153Z,27.10
2018-02-05T13:10:03.281Z,33.37
2018-02-05T13:12:33.334Z,29.30
2018-02-05T13:15:03.200Z,26.60
2018-02-05T13:17:32.313Z,28.00
2018-02-05T13:20:01.431Z,28.00
2018-02-05T13:22:30.529Z,25.30
2018-02-05T13:25:00.389Z,31.17
2018-02-05T13:27:29.572Z,28.83
2018-02-05T13:29:58.667Z,27.40
2018-02-05T13:32:27.779Z,32.37
2018-02-05T13:34:56.919Z,28.23
2018-02-05T13:37:26.023Z,29.83
2018-02-05T13:39:56.680Z,27.80
2018-02-05T13:42:25.836Z,30.50
2018-02-05T13:44:54.951Z,40.60
2018-02-05T13:47:24.811Z,30.40
2018-02-05T13:49:53.961Z,24.80
2018-02-05T13:52:24.063Z,28.53
2018-02-05T13:54:58.760Z,29.43
2018-02-05T13:57:31.479Z,28.43
2018-02-05T14:00:00.584Z,27.60
2018-02-05T14:02:30.468Z,30.73
2018-02-05T14:04:59.607Z,26.43
2018-02-05T14:07:29.487Z,25.27
2018-02-05T14:09:58.652Z,30.37
2018-02-05T14:12:28.783Z,24.23
2018-02-05T14:14:57.914Z,28.87
2018-02-05T14:17:27.973Z,24.90
2018-02-05T14:19:57.091Z,26.00
2018-02-05T14:22:27.026Z,25.27
2018-02-05T14:24:56.124Z,24.20
2018-02-05T14:27:25.265Z,28.27
2018-02-05T14:29:54.377Z,23.10
2018-02-05T14:32:23.486Z,26.70
2018-02-05T14:34:53.345Z,24.50
2018-02-05T14:37:25.232Z,25.27
2018-02-05T14:39:54.333Z,25.80
2018-02-05T14:42:23.550Z,25.20
2018-02-05T14:44:52.679Z,24.40
2018-02-05T14:47:21.815Z,28.17
2018-02-05T14:49:51.679Z,26.00
2018-02-05T14:52:21.574Z,22.63
2018-02-05T14:54:50.660Z,23.40
2018-02-05T14:57:19.777Z,28.27
2018-02-05T14:59:48.904Z,24.97
2018-02-05T15:02:18.006Z,21.20
2018-02-05T15:04:47.857Z,26.70
2018-02-05T15:07:17.814Z,24.70
2018-02-05T15:09:46.938Z,21.20
2018-02-05T15:12:16.795Z,25.53
2018-02-05T15:14:45.938Z,23.30
2018-02-05T15:17:15.049Z,25.20
2018-02-05T15:19:44.952Z,26.13
2018-02-05T15:22:14.817Z,25.83
2018-02-05T15:24:43.935Z,23.63
2018-02-05T15:27:13.030Z,28.80
2018-02-05T15:29:42.147Z,22.90
2018-02-05T15:32:12.268Z,20.80
2018-02-05T15:34:42.411Z,28.13
2018-02-05T15:37:13.344Z,20.77
2018-02-05T15:39:43.256Z,20.20
2018-02-05T15:42:13.405Z,30.17
2018-02-05T15:44:43.456Z,23.57
2018-02-05T15:47:12.553Z,47.30
2018-02-05T15:49:41.682Z,22.10
2018-02-05T15:52:10.782Z,23.80
2018-02-05T15:54:40.677Z,21.43
2018-02-05T15:57:09.774Z,20.63
2018-02-05T15:59:38.866Z,19.80
2018-02-05T16:02:07.987Z,22.10
2018-02-05T16:04:37.879Z,24.90
2018-02-05T16:07:07.013Z,21.20
2018-02-05T16:09:36.156Z,22.93
2018-02-05T16:12:05.240Z,24.20
2018-02-05T16:14:34.351Z,23.83
2018-02-05T16:17:03.531Z,24.87
2018-02-05T16:19:32.662Z,27.33
2018-02-05T16:22:01.790Z,24.93
2018-02-05T16:24:30.907Z,26.63
2018-02-05T16:27:00.040Z,23.17
2018-02-05T16:29:29.152Z,24.90
2018-02-05T16:31:59.076Z,25.83
2018-02-05T16:34:28.265Z,27.60
2018-02-05T16:36:57.387Z,24.87
2018-02-05T16:39:26.506Z,25.03
2018-02-05T16:41:55.646Z,29.10
2018-02-05T16:44:24.745Z,25.97
2018-02-05T16:46:53.887Z,23.27
2018-02-05T16:49:22.981Z,27.27
2018-02-05T16:51:52.096Z,26.23
2018-02-05T16:54:21.202Z,23.00
2018-02-05T16:56:50.338Z,24.50
2018-02-05T16:59:20.209Z,29.23
2018-02-05T17:01:49.332Z,24.37
2018-02-05T17:04:18.475Z,29.07
2018-02-05T17:06:47.591Z,24.23
2018-02-05T17:09:16.728Z,25.20
2018-02-05T17:11:45.835Z,24.17
2018-02-05T17:14:15.732Z,25.67
2018-02-05T17:16:45.710Z,28.27
2018-02-05T17:19:15.609Z,31.20
2018-02-05T17:21:45.207Z,24.87
2018-02-05T17:24:15.957Z,32.07
2018-02-05T17:26:45.050Z,28.17
2018-02-05T17:29:14.179Z,31.80
2018-02-05T17:31:43.309Z,26.53
2018-02-05T17:34:13.180Z,24.20
2018-02-05T17:36:43.106Z,25.97
2018-02-05T17:39:12.234Z,29.03
2018-02-05T17:41:41.334Z,31.30
2018-02-05T17:44:10.445Z,30.13
2018-02-05T17:46:39.947Z,26.37
2018-02-05T17:49:09.832Z,23.37
2018-02-05T17:51:38.949Z,20.53
2018-02-05T17:54:11.103Z,29.57
2018-02-05T17:56:40.226Z,27.90
2018-02-05T17:59:10.190Z,26.23
2018-02-05T18:01:40.930Z,28.93
2018-02-05T18:04:10.500Z,25.37
2018-02-05T18:06:39.620Z,26.63
2018-02-05T18:09:08.732Z,28.63
2018-02-05T18:11:37.847Z,30.03
2018-02-05T18:14:06.944Z,30.37
2018-02-05T18:16:36.838Z,35.67
2018-02-05T18:19:05.939Z,25.60
2018-02-05T18:21:35.129Z,25.60
2018-02-05T18:24:04.267Z,28.23
2018-02-05T18:26:34.139Z,30.07
2018-02-05T18:29:03.270Z,33.70
2018-02-05T18:31:33.405Z,28.50
2018-02-05T18:34:02.573Z,26.03
2018-02-05T18:36:31.709Z,27.70
2018-02-05T18:39:00.800Z,27.37
2018-02-05T18:41:29.967Z,30.93
2018-02-05T18:43:59.088Z,26.30
2018-02-05T18:46:29.866Z,26.73
2018-02-05T18:48:59.002Z,22.97
2018-02-05T18:51:30.339Z,30.77
2018-02-05T18:54:03.957Z,23.50
2018-02-05T18:56:44.860Z,23.50
2018-02-05T18:59:14.015Z,25.17
2018-02-05T19:01:43.139Z,27.60
2018-02-05T19:04:13.036Z,25.23
2018-02-05T19:06:43.869Z,22.53
2018-02-05T19:09:13.759Z,22.37
2018-02-05T19:11:42.908Z,21.33
2018-02-05T19:14:12.846Z,22.67
2018-02-05T19:16:41.990Z,27.20
2018-02-05T19:19:11.122Z,25.63
2018-02-05T19:21:40.240Z,22.23
2018-02-05T19:24:09.354Z,22.03
2018-02-05T19:26:38.472Z,28.33
2018-02-05T19:29:07.613Z,31.03
2018-02-05T19:31:37.320Z,28.60
2018-02-05T19:34:06.424Z,20.40
2018-02-05T19:36:35.639Z,23.43
2018-02-05T19:39:04.774Z,20.13
2018-02-05T19:41:35.449Z,21.90
2018-02-05T19:44:05.216Z,25.87
2018-02-05T19:46:35.725Z,25.87
2018-02-05T19:49:04.847Z,23.80
2018-02-05T19:51:34.774Z,21.10
2018-02-05T19:54:04.668Z,23.87
2018-02-05T19:56:33.807Z,22.83
2018-02-05T19:59:02.926Z,29.10
2018-02-05T20:01:32.096Z,21.37
2018-02-05T20:04:01.180Z,19.40
2018-02-05T20:06:30.309Z,23.50
2018-02-05T20:08:59.409Z,21.40
2018-02-05T20:11:28.542Z,21.13
2018-02-05T20:13:57.698Z,21.10
2018-02-05T20:16:26.847Z,24.73
2018-02-05T20:18:56.008Z,32.30
2018-02-05T20:21:25.138Z,24.23
2018-02-05T20:23:55.075Z,25.30
2018-02-05T20:26:24.969Z,31.03
2018-02-05T20:28:54.092Z,22.40
2018-02-05T20:31:23.192Z,23.67
2018-02-05T20:33:52.328Z,23.80
2018-02-05T20:36:21.466Z,27.73
2018-02-05T20:38:51.352Z,29.53
2018-02-05T20:41:20.559Z,21.13
2018-02-05T20:43:49.712Z,21.70
2018-02-05T20:46:18.837Z,23.03
2018-02-05T20:48:47.958Z,24.83
2018-02-05T20:51:18.586Z,21.70
2018-02-05T20:53:47.711Z,28.00
2018-02-05T20:56:17.565Z,21.73
2018-02-05T20:58:46.698Z,21.00
2018-02-05T21:01:16.579Z,28.50
2018-02-05T21:03:45.703Z,21.00
2018-02-05T21:06:15.579Z,23.53
2018-02-05T21:08:44.712Z,23.93
2018-02-05T21:11:14.629Z,20.13
2018-02-05T21:13:43.759Z,21.63
2018-02-05T21:16:13.642Z,21.67
2018-02-05T21:18:43.541Z,23.60
2018-02-05T21:21:12.665Z,25.47
2018-02-05T21:23:42.551Z,30.87
2018-02-05T21:26:11.687Z,26.33
2018-02-05T21:28:40.814Z,28.33
2018-02-05T21:31:10.698Z,19.67
2018-02-05T21:33:40.594Z,23.80
2018-02-05T21:36:10.488Z,23.00
2018-02-05T21:38:39.590Z,24.03
2018-02-05T21:41:08.758Z,25.13
2018-02-05T21:43:38.014Z,23.40
2018-02-05T21:46:07.919Z,26.17
2018-02-05T21:48:37.017Z,26.70
2018-02-05T21:51:06.927Z,23.27
2018-02-05T21:53:36.819Z,23.07
2018-02-05T21:56:05.917Z,24.53
2018-02-05T21:58:35.080Z,24.60
2018-02-05T22:01:04.208Z,21.80
2018-02-05T22:03:34.672Z,20.07
2018-02-05T22:06:03.803Z,24.47
2018-02-05T22:08:32.930Z,25.27
2018-02-05T22:11:02.867Z,26.30
2018-02-05T22:13:32.734Z,29.30
2018-02-05T22:16:02.690Z,28.07
2018-02-05T22:18:31.819Z,25.50
2018-02-05T22:21:00.911Z,28.07
2018-02-05T22:23:30.040Z,25.57
2018-02-05T22:25:59.906Z,27.90
2018-02-05T22:28:29.779Z,27.50
2018-02-05T22:30:58.890Z,27.33
2018-02-05T22:33:28.017Z,30.50
2018-02-05T22:35:57.924Z,25.50
2018-02-05T22:38:27.794Z,26.57
2018-02-05T22:40:56.935Z,22.33
2018-02-05T22:43:26.790Z,25.67
2018-02-05T22:45:55.933Z,23.40
2018-02-05T22:48:25.033Z,24.80
2018-02-05T22:50:54.926Z,24.43
2018-02-05T22:53:24.033Z,28.87
2018-02-05T22:55:53.158Z,24.97
2018-02-05T22:58:22.259Z,25.73
2018-02-05T23:00:51.365Z,25.97
2018-02-05T23:03:20.475Z,29.40
2018-02-05T23:05:49.609Z,28.23
2018-02-05T23:08:18.724Z,24.80
2018-02-05T23:10:48.584Z,25.37
2018-02-05T23:13:17.701Z,24.93
2018-02-05T23:15:46.809Z,24.43
2018-02-05T23:18:15.944Z,26.57
2018-02-05T23:20:45.797Z,25.20
2018-02-05T23:23:14.909Z,30.80
2018-02-05T23:25:44.033Z,23.73
2018-02-05T23:28:13.126Z,29.30
2018-02-05T23:30:43.006Z,24.07
2018-02-05T23:33:12.137Z,26.10
2018-02-05T23:35:42.019Z,26.10
2018-02-05T23:38:11.118Z,26.93
2018-02-05T23:40:40.227Z,25.83
2018-02-05T23:43:09.328Z,29.07
2018-02-05T23:45:38.445Z,24.90
2018-02-05T23:48:09.100Z,25.53
2018-02-05T23:50:39.941Z,26.53
2018-02-05T23:53:09.829Z,28.97
2018-02-05T23:55:39.718Z,27.10
2018-02-05T23:58:08.857Z,25.70
